Time;durP1;ratioP1;P1;durP2;ratioP2;P2;SDS_P1;SDS_P2;PMS_P1;PMS_P2;Temp;Humidity;BMP_temperature;BMP_pressure;BME280_temperature;BME280_humidity;BME280_pressure;Samples;Min_cycle;Max_cycle;Signal;HPM_P1;HPM_P2
2022/06/09 00:01:04;;;;;;;4.67;3.43;;;15.30;99.90;;;;;;5121618;27;20235;-69
2022/06/09 00:03:36;;;;;;;6.27;3.30;;;15.10;99.90;;;;;;5112903;28;20258;-69
2022/06/09 00:06:06;;;;;;;3.57;2.90;;;15.30;99.90;;;;;;5109945;28;20278;-69
2022/06/09 00:08:34;;;;;;;4.83;3.30;;;15.30;99.90;;;;;;5131222;27;20669;-69
2022/06/09 00:11:05;;;;;;;6.00;3.20;;;15.10;99.90;;;;;;5102938;27;20594;-69
2022/06/09 00:13:32;;;;;;;3.30;3.00;;;15.10;99.90;;;;;;5093299;28;20301;-69
2022/06/09 00:16:00;;;;;;;4.20;2.80;;;15.20;99.90;;;;;;5122975;27;20642;-69
2022/06/09 00:18:27;;;;;;;4.07;3.27;;;15.10;99.90;;;;;;5113633;27;20209;-69
2022/06/09 00:20:55;;;;;;;5.57;3.53;;;15.10;99.90;;;;;;5111383;28;20667;-68
2022/06/09 00:23:22;;;;;;;3.87;3.50;;;15.10;99.90;;;;;;5112376;28;20651;-68
2022/06/09 00:25:49;;;;;;;4.40;3.40;;;15.10;99.90;;;;;;5111802;28;20231;-69
2022/06/09 00:28:16;;;;;;;3.83;3.43;;;15.20;99.90;;;;;;5113727;28;20242;-69
2022/06/09 00:30:43;;;;;;;4.57;3.40;;;15.10;99.90;;;;;;5111446;28;20700;-69
2022/06/09 00:33:12;;;;;;;6.83;4.17;;;15.10;99.90;;;;;;5114021;28;20247;-69
2022/06/09 00:35:39;;;;;;;4.97;3.97;;;15.00;99.90;;;;;;5122142;27;20629;-69
2022/06/09 00:38:06;;;;;;;5.37;4.40;;;15.00;99.90;;;;;;5132535;27;20638;-69
2022/06/09 00:40:33;;;;;;;5.70;4.37;;;15.00;99.90;;;;;;5110364;27;20223;-69
2022/06/09 00:43:01;;;;;;;5.73;4.23;;;15.10;99.90;;;;;;5114971;27;20284;-69
2022/06/09 00:45:32;;;;;;;5.23;4.37;;;15.10;99.90;;;;;;5112708;27;20735;-69
2022/06/09 00:48:08;;;;;;;5.67;4.30;;;15.10;99.90;;;;;;5111590;27;20542;-69
2022/06/09 00:50:40;;;;;;;10.03;4.87;;;15.00;99.90;;;;;;5110587;27;20201;-69
2022/06/09 00:53:13;;;;;;;6.40;4.50;;;14.80;99.90;;;;;;5112228;28;20560;-69
2022/06/09 00:55:42;;;;;;;5.40;4.90;;;14.80;99.90;;;;;;5116113;27;20209;-69
2022/06/09 00:58:13;;;;;;;7.60;5.13;;;15.00;99.90;;;;;;5111809;28;20201;-69
2022/06/09 01:00:47;;;;;;;7.13;4.57;;;14.80;99.90;;;;;;5109577;28;20250;-69
2022/06/09 01:03:16;;;;;;;8.40;4.73;;;14.90;99.90;;;;;;5112577;28;20595;-68
2022/06/09 01:05:46;;;;;;;6.93;5.37;;;14.90;99.90;;;;;;5101341;27;20229;-69
2022/06/09 01:08:15;;;;;;;5.73;5.13;;;14.80;99.90;;;;;;5127410;27;20277;-69
2022/06/09 01:10:42;;;;;;;5.73;5.10;;;14.80;99.90;;;;;;5110184;27;20534;-69
2022/06/09 01:13:10;;;;;;;7.50;5.60;;;14.80;99.90;;;;;;5132803;27;20204;-69
2022/06/09 01:15:46;;;;;;;7.87;5.60;;;14.80;99.90;;;;;;5107652;27;20680;-69
2022/06/09 01:18:24;;;;;;;10.17;6.00;;;14.80;99.90;;;;;;5110290;27;20602;-69
2022/06/09 01:20:59;;;;;;;6.63;5.80;;;14.80;99.90;;;;;;5110661;28;20204;-69
2022/06/09 01:23:44;;;;;;;9.70;6.00;;;14.90;99.90;;;;;;5112381;28;20200;-69
2022/06/09 01:26:44;;;;;;;7.67;6.40;;;14.80;99.90;;;;;;5110967;28;20225;-69
2022/06/09 01:29:31;;;;;;;9.07;6.60;;;14.80;99.90;;;;;;5111494;28;20254;-69
2022/06/09 01:32:06;;;;;;;10.57;6.67;;;14.70;99.90;;;;;;5112248;28;20201;-69
2022/06/09 01:34:40;;;;;;;9.27;6.93;;;14.80;99.90;;;;;;5112125;28;20605;-69
2022/06/09 01:37:13;;;;;;;7.77;6.57;;;14.60;99.90;;;;;;5111752;28;20202;-68
2022/06/09 01:39:46;;;;;;;10.00;7.33;;;14.70;99.90;;;;;;5111166;28;20207;-69
2022/06/09 01:42:26;;;;;;;11.00;7.90;;;14.70;99.90;;;;;;5112155;28;20670;-69
2022/06/09 01:44:57;;;;;;;11.87;8.10;;;14.60;99.90;;;;;;5111910;28;20652;-69
2022/06/09 01:47:37;;;;;;;10.87;8.10;;;14.60;99.90;;;;;;5112001;28;20220;-69
2022/06/09 01:50:07;;;;;;;11.33;8.20;;;14.50;99.90;;;;;;5111489;28;20321;-69
2022/06/09 01:52:36;;;;;;;12.10;8.80;;;14.70;99.90;;;;;;5112147;28;20643;-69
2022/06/09 01:55:07;;;;;;;13.60;9.53;;;14.60;99.90;;;;;;5112188;28;20250;-69
2022/06/09 01:57:38;;;;;;;11.77;8.93;;;14.60;99.90;;;;;;5111614;28;20602;-69
2022/06/09 02:00:09;;;;;;;13.73;9.33;;;14.60;99.90;;;;;;5125098;27;20672;-69
2022/06/09 02:02:43;;;;;;;12.80;9.40;;;14.50;99.90;;;;;;5132259;27;20203;-69
2022/06/09 02:05:14;;;;;;;13.57;9.30;;;14.50;99.90;;;;;;5132473;27;20307;-69
2022/06/09 02:07:42;;;;;;;17.17;9.97;;;14.50;99.90;;;;;;5132158;27;20631;-69
2022/06/09 02:10:16;;;;;;;15.53;9.93;;;14.40;99.90;;;;;;5114194;27;20618;-69
2022/06/09 02:12:43;;;;;;;14.03;10.10;;;14.40;99.90;;;;;;5111220;28;20553;-69
2022/06/09 02:15:14;;;;;;;18.77;11.50;;;14.40;99.90;;;;;;5112108;28;20196;-69
2022/06/09 02:17:48;;;;;;;16.73;10.67;;;14.50;99.90;;;;;;5111488;28;20535;-75
2022/06/09 02:20:17;;;;;;;18.43;11.57;;;14.50;99.90;;;;;;5111259;28;20567;-76
2022/06/09 02:22:44;;;;;;;16.83;11.63;;;14.50;99.90;;;;;;5123084;27;20197;-76
2022/06/09 02:25:12;;;;;;;18.87;11.70;;;14.50;99.90;;;;;;5133009;27;20216;-76
2022/06/09 02:27:39;;;;;;;18.77;12.33;;;14.50;99.90;;;;;;5132342;28;20202;-76
2022/06/09 02:30:09;;;;;;;18.13;11.70;;;14.60;99.90;;;;;;5131859;28;20208;-76
2022/06/09 02:32:36;;;;;;;17.87;11.33;;;14.60;99.90;;;;;;5123880;27;20193;-76
2022/06/09 02:35:05;;;;;;;18.50;11.13;;;14.60;99.90;;;;;;5120052;28;20626;-76
2022/06/09 02:37:32;;;;;;;19.13;11.87;;;14.50;99.90;;;;;;5132207;28;20224;-75
2022/06/09 02:39:59;;;;;;;22.03;12.60;;;14.50;99.90;;;;;;5131353;27;20653;-76
2022/06/09 02:42:26;;;;;;;17.83;11.83;;;14.60;99.90;;;;;;5127281;28;20669;-76
2022/06/09 02:44:53;;;;;;;19.50;12.60;;;14.50;99.90;;;;;;5111495;28;20345;-75
2022/06/09 02:47:20;;;;;;;18.97;13.20;;;14.50;99.90;;;;;;5111277;28;20611;-75
2022/06/09 02:49:47;;;;;;;21.00;14.10;;;14.50;99.90;;;;;;5106094;28;20522;-75
2022/06/09 02:52:16;;;;;;;22.70;14.27;;;14.40;99.90;;;;;;5101805;28;20293;-74
2022/06/09 02:54:43;;;;;;;23.67;14.63;;;14.40;99.90;;;;;;5102525;28;20288;-74
2022/06/09 02:57:10;;;;;;;24.63;14.17;;;14.40;99.90;;;;;;5101812;28;20499;-73
2022/06/09 02:59:37;;;;;;;20.70;14.13;;;14.50;99.90;;;;;;5104389;28;20608;-74
2022/06/09 03:02:04;;;;;;;20.87;14.40;;;14.40;99.90;;;;;;5120394;28;20920;-74
2022/06/09 03:04:31;;;;;;;24.43;14.93;;;14.50;99.90;;;;;;5108210;28;20705;-74
2022/06/09 03:06:58;;;;;;;24.00;14.73;;;14.40;99.90;;;;;;5130046;28;20263;-74
2022/06/09 03:09:26;;;;;;;21.90;13.67;;;14.40;99.90;;;;;;5125336;28;20285;-75
2022/06/09 03:11:54;;;;;;;21.80;15.07;;;14.40;99.90;;;;;;5108479;28;20197;-75
2022/06/09 03:14:21;;;;;;;25.23;14.83;;;14.50;99.90;;;;;;5120111;28;20245;-75
2022/06/09 03:16:48;;;;;;;21.93;14.03;;;14.50;99.90;;;;;;5109416;27;20224;-75
2022/06/09 03:19:15;;;;;;;23.33;14.60;;;14.50;99.90;;;;;;5103955;28;20193;-75
2022/06/09 03:21:42;;;;;;;21.17;13.87;;;14.40;99.90;;;;;;5090964;28;20718;-75
2022/06/09 03:24:09;;;;;;;23.90;13.97;;;14.50;99.90;;;;;;5089876;28;20254;-75
2022/06/09 03:26:37;;;;;;;23.67;15.00;;;14.50;99.90;;;;;;5093795;28;20321;-75
2022/06/09 03:29:05;;;;;;;21.37;13.70;;;14.60;99.90;;;;;;5091574;28;20456;-75
2022/06/09 03:31:32;;;;;;;18.73;13.27;;;14.60;99.90;;;;;;5094154;28;20259;-75
2022/06/09 03:33:59;;;;;;;21.67;13.20;;;14.60;99.90;;;;;;5094059;28;20198;-75
2022/06/09 03:36:26;;;;;;;20.77;13.27;;;14.60;99.90;;;;;;5093919;28;20264;-75
2022/06/09 03:38:53;;;;;;;19.73;13.53;;;14.60;99.90;;;;;;5102289;28;20205;-75
2022/06/09 03:41:20;;;;;;;18.93;12.80;;;14.60;99.90;;;;;;5095516;28;20197;-75
2022/06/09 03:43:49;;;;;;;20.50;13.47;;;14.60;99.90;;;;;;5105517;28;20266;-74
2022/06/09 03:46:16;;;;;;;20.13;13.87;;;14.70;99.90;;;;;;5103299;28;20750;-75
2022/06/09 03:48:43;;;;;;;20.40;12.50;;;14.60;99.90;;;;;;5107372;28;20619;-75
2022/06/09 03:51:11;;;;;;;20.83;12.63;;;14.70;99.90;;;;;;5107062;28;20258;-75
2022/06/09 03:53:39;;;;;;;19.87;12.80;;;14.70;99.90;;;;;;5106692;28;20296;-75
2022/06/09 03:56:07;;;;;;;18.17;12.57;;;14.60;99.90;;;;;;5103899;28;20665;-74
2022/06/09 03:58:34;;;;;;;19.63;11.47;;;14.70;99.90;;;;;;5102197;28;20322;-75
2022/06/09 04:01:03;;;;;;;18.43;12.60;;;14.70;99.90;;;;;;5105176;28;20494;-75
2022/06/09 04:03:31;;;;;;;21.60;13.13;;;14.70;99.90;;;;;;5103824;28;20602;-74
2022/06/09 04:05:58;;;;;;;23.23;12.80;;;14.90;99.90;;;;;;5105618;27;20225;-75
2022/06/09 04:08:25;;;;;;;18.50;13.20;;;14.80;99.90;;;;;;5107086;28;20208;-75
2022/06/09 04:10:53;;;;;;;18.03;11.97;;;14.90;99.90;;;;;;5105163;28;20299;-75
2022/06/09 04:13:21;;;;;;;19.80;12.80;;;15.00;99.90;;;;;;5101776;28;20217;-75
2022/06/09 04:15:48;;;;;;;21.30;12.23;;;15.00;99.90;;;;;;5106941;28;20242;-75
2022/06/09 04:18:16;;;;;;;17.73;12.37;;;15.00;99.90;;;;;;5101120;28;20201;-75
2022/06/09 04:20:43;;;;;;;16.10;11.57;;;15.00;99.90;;;;;;5107542;28;20614;-75
2022/06/09 04:23:10;;;;;;;17.03;11.33;;;15.00;99.90;;;;;;5100143;28;20198;-75
2022/06/09 04:25:38;;;;;;;16.43;11.40;;;15.00;99.90;;;;;;5105410;28;20257;-75
2022/06/09 04:28:05;;;;;;;21.03;12.27;;;15.10;99.90;;;;;;5101825;28;20204;-75
2022/06/09 04:30:32;;;;;;;19.37;11.43;;;15.00;99.90;;;;;;5098663;28;20194;-75
2022/06/09 04:32:59;;;;;;;18.07;11.33;;;15.20;99.90;;;;;;5110332;28;20197;-75
2022/06/09 04:35:28;;;;;;;18.37;11.37;;;15.10;99.90;;;;;;5101837;28;20734;-75
2022/06/09 04:38:01;;;;;;;18.40;11.53;;;15.10;99.90;;;;;;5106646;27;20202;-75
2022/06/09 04:40:31;;;;;;;18.93;11.50;;;15.20;99.90;;;;;;5103971;28;20636;-75
2022/06/09 04:42:58;;;;;;;18.47;10.93;;;15.10;99.90;;;;;;5100889;28;20209;-75
2022/06/09 04:45:25;;;;;;;17.90;10.97;;;15.10;99.90;;;;;;5095942;28;20721;-75
2022/06/09 04:47:52;;;;;;;18.30;11.80;;;15.20;99.90;;;;;;5103308;28;20200;-74
2022/06/09 04:50:20;;;;;;;17.77;11.07;;;15.30;99.90;;;;;;5097097;28;20201;-74
2022/06/09 04:52:48;;;;;;;18.73;11.83;;;15.40;99.90;;;;;;5106306;28;20201;-74
2022/06/09 04:55:15;;;;;;;18.87;11.63;;;15.40;99.90;;;;;;5102411;28;20201;-74
2022/06/09 04:57:43;;;;;;;16.67;11.67;;;15.30;99.90;;;;;;5104069;28;20229;-74
2022/06/09 05:00:12;;;;;;;20.60;12.70;;;15.40;99.90;;;;;;5102084;28;20720;-75
2022/06/09 05:02:39;;;;;;;17.80;12.03;;;15.30;99.90;;;;;;5105406;28;20239;-75
2022/06/09 05:05:10;;;;;;;19.27;11.53;;;15.50;99.90;;;;;;5099326;28;20618;-75
2022/06/09 05:07:37;;;;;;;18.27;11.80;;;15.60;99.90;;;;;;5104229;27;20226;-75
2022/06/09 05:10:06;;;;;;;20.67;11.80;;;15.40;99.90;;;;;;5096484;28;20201;-75
2022/06/09 05:12:33;;;;;;;21.87;12.77;;;15.40;99.90;;;;;;5108378;28;20248;-75
2022/06/09 05:15:00;;;;;;;20.13;12.70;;;15.40;99.90;;;;;;5103430;27;20615;-75
2022/06/09 05:17:27;;;;;;;19.90;11.30;;;15.40;99.90;;;;;;5102887;28;20254;-75
2022/06/09 05:19:54;;;;;;;21.47;12.90;;;15.40;99.90;;;;;;5094264;28;20287;-75
2022/06/09 05:22:21;;;;;;;18.67;12.50;;;15.40;99.90;;;;;;5111353;28;20242;-75
2022/06/09 05:24:48;;;;;;;20.93;13.37;;;15.50;99.90;;;;;;5109311;28;20283;-75
2022/06/09 05:27:17;;;;;;;20.17;13.07;;;15.60;99.90;;;;;;5112536;28;20221;-75
2022/06/09 05:29:44;;;;;;;22.20;13.57;;;15.70;99.90;;;;;;5108718;28;20254;-75
2022/06/09 05:32:11;;;;;;;21.83;14.05;;;15.70;99.90;;;;;;5092365;28;20205;-75
2022/06/09 05:34:38;;;;;;;21.97;13.40;;;15.80;99.90;;;;;;5092350;28;20243;-73
2022/06/09 05:37:05;;;;;;;20.60;14.20;;;15.70;99.90;;;;;;5092856;28;20293;-73
2022/06/09 05:45:04;;;;;;;24.50;15.02;;;15.90;99.90;;;;;;5090468;28;20205;-73
2022/06/09 05:47:32;;;;;;;22.52;14.60;;;15.90;99.90;;;;;;5091884;28;20280;-73
2022/06/09 05:49:59;;;;;;;22.35;15.45;;;16.00;99.90;;;;;;5091135;28;20228;-73
2022/06/09 05:52:27;;;;;;;23.33;14.90;;;16.00;99.90;;;;;;5091679;28;20193;-74
2022/06/09 05:54:55;;;;;;;24.15;14.75;;;15.90;99.90;;;;;;5089274;28;20201;-73
2022/06/09 05:57:25;;;;;;;24.20;15.23;;;15.90;99.90;;;;;;5092154;28;20201;-73
2022/06/09 05:59:53;;;;;;;22.83;14.10;;;15.90;99.90;;;;;;5090680;28;20277;-73
2022/06/09 06:02:23;;;;;;;20.87;14.90;;;16.00;99.90;;;;;;5090404;28;20543;-73
2022/06/09 06:04:50;;;;;;;23.90;15.57;;;15.90;99.90;;;;;;5090666;28;20255;-74
2022/06/09 06:07:17;;;;;;;21.03;14.70;;;15.80;99.90;;;;;;5104274;28;20256;-73
2022/06/09 06:09:44;;;;;;;23.00;15.48;;;15.90;99.90;;;;;;5109525;28;20262;-73
2022/06/09 06:12:11;;;;;;;22.85;15.23;;;15.80;99.90;;;;;;5107953;28;20288;-73
2022/06/09 06:14:40;;;;;;;23.13;14.33;;;15.90;99.90;;;;;;5109782;28;20679;-73
2022/06/09 06:17:07;;;;;;;23.67;15.30;;;15.90;99.90;;;;;;5106355;28;20205;-73
2022/06/09 06:19:34;;;;;;;26.27;14.90;;;15.90;99.90;;;;;;5102980;28;20233;-73
2022/06/09 06:22:01;;;;;;;24.98;15.88;;;15.80;99.90;;;;;;5099086;28;20197;-73
2022/06/09 06:24:28;;;;;;;22.37;15.17;;;15.80;99.90;;;;;;5099114;28;20202;-73
2022/06/09 06:26:55;;;;;;;24.77;15.23;;;15.80;99.90;;;;;;5105782;28;20281;-73
2022/06/09 06:29:25;;;;;;;24.63;15.50;;;15.80;99.90;;;;;;5109007;28;20197;-73
2022/06/09 06:31:53;;;;;;;23.63;16.05;;;15.80;99.90;;;;;;5109612;28;20201;-73
2022/06/09 06:34:20;;;;;;;22.47;16.23;;;15.80;99.90;;;;;;5108412;28;20205;-73
2022/06/09 06:36:48;;;;;;;22.70;15.48;;;15.70;99.90;;;;;;5090018;28;20731;-73
2022/06/09 06:39:15;;;;;;;24.03;15.07;;;15.70;99.90;;;;;;5089538;28;20209;-73
2022/06/09 06:41:42;;;;;;;26.03;15.07;;;15.70;99.90;;;;;;5091306;28;20561;-73
2022/06/09 06:44:10;;;;;;;24.47;13.97;;;15.80;99.90;;;;;;5090543;28;20313;-73
2022/06/09 06:46:37;;;;;;;22.02;13.70;;;15.80;99.90;;;;;;5090934;28;20342;-73
2022/06/09 06:49:06;;;;;;;21.85;13.20;;;15.80;99.90;;;;;;5088310;28;20724;-73
2022/06/09 06:51:33;;;;;;;22.83;13.63;;;15.80;99.90;;;;;;5091493;28;20202;-73
2022/06/09 06:54:00;;;;;;;23.47;13.47;;;15.80;99.90;;;;;;5089386;28;20206;-73
2022/06/09 06:56:27;;;;;;;19.60;13.80;;;15.90;99.90;;;;;;5090731;28;20205;-73
2022/06/09 06:58:54;;;;;;;21.50;13.93;;;16.00;99.90;;;;;;5091212;28;20428;-73
2022/06/09 07:01:21;;;;;;;21.00;13.50;;;16.00;99.90;;;;;;5093580;28;20215;-73
2022/06/09 07:03:48;;;;;;;17.33;12.97;;;16.00;99.90;;;;;;5093964;28;20701;-73
2022/06/09 07:06:17;;;;;;;20.98;13.65;;;16.10;99.90;;;;;;5093674;28;20264;-73
2022/06/09 07:08:44;;;;;;;22.17;14.40;;;16.10;99.90;;;;;;5095781;28;20197;-73
2022/06/09 07:11:11;;;;;;;18.35;12.82;;;16.10;99.90;;;;;;5113958;28;20682;-73
2022/06/09 07:13:38;;;;;;;23.17;14.32;;;16.10;99.90;;;;;;5111105;28;20217;-73
2022/06/09 07:16:06;;;;;;;21.70;13.23;;;16.10;99.90;;;;;;5094741;28;20229;-73
2022/06/09 07:18:35;;;;;;;18.37;12.47;;;16.10;99.90;;;;;;5093979;28;20446;-73
2022/06/09 07:21:03;;;;;;;20.60;12.73;;;16.20;99.90;;;;;;5093907;28;20619;-73
2022/06/09 07:23:32;;;;;;;18.77;12.80;;;16.20;99.90;;;;;;5092624;28;20636;-73
2022/06/09 07:26:00;;;;;;;19.17;13.25;;;16.20;99.90;;;;;;5094690;28;20255;-73
2022/06/09 07:28:28;;;;;;;22.45;13.70;;;16.20;99.90;;;;;;5094609;28;20205;-73
2022/06/09 07:30:56;;;;;;;19.98;12.95;;;16.20;99.90;;;;;;5092629;28;20212;-73
2022/06/09 07:33:25;;;;;;;21.43;13.13;;;16.20;99.90;;;;;;5093646;28;20197;-73
2022/06/09 07:35:53;;;;;;;23.07;14.37;;;16.20;99.90;;;;;;5093809;28;20206;-73
2022/06/09 07:38:21;;;;;;;23.10;14.80;;;16.30;99.90;;;;;;5094728;28;20200;-73
2022/06/09 07:40:50;;;;;;;18.45;13.52;;;16.40;99.90;;;;;;5093477;28;20285;-73
2022/06/09 07:43:19;;;;;;;18.98;13.73;;;16.50;99.90;;;;;;5092779;28;20599;-73
2022/06/09 07:45:47;;;;;;;19.20;13.53;;;16.50;99.90;;;;;;5094607;28;20208;-73
2022/06/09 07:48:14;;;;;;;18.90;13.60;;;16.60;99.90;;;;;;5093222;28;20261;-73
2022/06/09 07:50:41;;;;;;;19.20;12.95;;;16.90;99.90;;;;;;5093540;28;20209;-73
2022/06/09 07:53:08;;;;;;;19.40;12.98;;;17.20;99.90;;;;;;5092586;28;20197;-73
2022/06/09 07:55:35;;;;;;;20.17;12.50;;;17.40;99.90;;;;;;5092895;28;20237;-73
2022/06/09 07:58:05;;;;;;;19.38;12.20;;;17.40;99.90;;;;;;5094063;28;20182;-73
2022/06/09 08:00:33;;;;;;;19.23;12.68;;;17.30;99.90;;;;;;5092387;28;20636;-73
2022/06/09 08:03:03;;;;;;;18.48;12.10;;;17.30;99.90;;;;;;5114573;28;20655;-73
2022/06/09 08:05:31;;;;;;;18.25;11.73;;;17.40;99.90;;;;;;5111117;28;20208;-73
2022/06/09 08:07:58;;;;;;;17.50;12.60;;;17.30;99.90;;;;;;5114290;28;20252;-73
2022/06/09 08:10:29;;;;;;;17.98;12.57;;;17.40;99.90;;;;;;5102786;28;20709;-73
2022/06/09 08:13:02;;;;;;;16.77;13.32;;;17.30;99.90;;;;;;5092705;28;20613;-73
2022/06/09 08:15:32;;;;;;;16.85;12.57;;;17.30;99.90;;;;;;5091974;28;20210;-73
2022/06/09 08:18:00;;;;;;;18.05;11.32;;;17.60;99.90;;;;;;5094126;28;20209;-73
2022/06/09 08:20:29;;;;;;;16.52;12.10;;;17.80;99.90;;;;;;5092907;28;20581;-73
2022/06/09 08:23:01;;;;;;;17.75;11.80;;;17.60;99.90;;;;;;5113054;27;20289;-73
2022/06/09 08:25:28;;;;;;;18.27;12.43;;;18.00;99.90;;;;;;5112606;28;20224;-73
2022/06/09 08:27:57;;;;;;;15.48;10.98;;;18.20;99.90;;;;;;5092070;28;20308;-73
2022/06/09 08:30:25;;;;;;;15.75;11.05;;;18.30;99.90;;;;;;5091844;28;20198;-73
2022/06/09 08:32:53;;;;;;;20.08;11.63;;;18.20;99.90;;;;;;5093313;28;20262;-73
2022/06/09 08:35:21;;;;;;;21.30;11.18;;;18.10;99.90;;;;;;5092464;28;20198;-73
2022/06/09 08:37:51;;;;;;;16.67;11.27;;;18.10;99.90;;;;;;5093306;28;20640;-73
2022/06/09 08:40:22;;;;;;;15.18;10.63;;;18.30;99.90;;;;;;5092089;28;20209;-73
2022/06/09 08:43:04;;;;;;;17.20;10.52;;;18.10;99.90;;;;;;5092061;28;20248;-73
2022/06/09 08:45:36;;;;;;;16.55;10.48;;;18.20;99.90;;;;;;5092183;28;20239;-73
2022/06/09 08:48:07;;;;;;;14.63;9.88;;;18.40;99.90;;;;;;5092263;28;20276;-73
2022/06/09 08:50:36;;;;;;;14.60;10.00;;;18.40;99.90;;;;;;5092429;28;20536;-70
2022/06/09 08:53:10;;;;;;;14.27;9.70;;;18.50;99.90;;;;;;5093542;28;20699;-71
2022/06/09 08:55:39;;;;;;;11.07;8.95;;;18.40;99.90;;;;;;5092748;28;20247;-70
2022/06/09 08:58:15;;;;;;;14.05;9.45;;;18.50;99.90;;;;;;5091978;28;20298;-70
2022/06/09 09:00:44;;;;;;;13.50;9.43;;;18.60;99.90;;;;;;5091605;28;20289;-71
2022/06/09 09:03:20;;;;;;;15.45;9.43;;;18.80;99.90;;;;;;5092570;28;20210;-70
2022/06/09 09:05:52;;;;;;;14.68;9.07;;;18.90;99.90;;;;;;5092790;28;20626;-70
2022/06/09 09:08:20;;;;;;;13.20;8.32;;;19.00;99.90;;;;;;5106673;28;20216;-70
2022/06/09 09:10:56;;;;;;;12.43;8.43;;;18.90;99.90;;;;;;5109003;28;20201;-70
2022/06/09 09:13:45;;;;;;;11.82;8.35;;;19.10;99.90;;;;;;5100166;28;20651;-70
2022/06/09 09:16:20;;;;;;;12.50;9.02;;;18.90;99.90;;;;;;5107713;28;20259;-70
2022/06/09 09:18:54;;;;;;;12.65;8.23;;;18.70;99.90;;;;;;5111447;28;20295;-70
2022/06/09 09:21:51;;;;;;;10.25;7.88;;;18.70;99.90;;;;;;5092586;28;20260;-70
2022/06/09 09:24:32;;;;;;;14.20;8.32;;;18.70;99.90;;;;;;5091489;28;20198;-70
2022/06/09 09:27:18;;;;;;;12.90;8.43;;;18.60;99.90;;;;;;5090634;28;20290;-70
2022/06/09 09:29:48;;;;;;;10.98;7.78;;;18.60;99.90;;;;;;5089735;28;20214;-71
2022/06/09 09:32:20;;;;;;;14.73;8.23;;;18.90;99.90;;;;;;5091604;28;20244;-70
2022/06/09 09:34:51;;;;;;;10.93;7.68;;;19.80;99.90;;;;;;5097183;28;20651;-71
2022/06/09 09:37:24;;;;;;;10.23;7.32;;;19.80;99.90;;;;;;5112181;28;20200;-70
2022/06/09 09:39:57;;;;;;;11.27;8.23;;;20.30;99.90;;;;;;5110259;28;20254;-71
2022/06/09 09:42:28;;;;;;;10.98;7.45;;;20.60;99.90;;;;;;5111406;28;20682;-70
2022/06/09 09:45:03;;;;;;;12.93;7.78;;;21.10;99.90;;;;;;5111464;28;20299;-71
2022/06/09 09:47:32;;;;;;;14.90;7.68;;;21.40;99.90;;;;;;5111012;28;20283;-70
2022/06/09 09:50:08;;;;;;;13.77;8.52;;;22.00;99.90;;;;;;5110631;28;20243;-71
2022/06/09 09:52:43;;;;;;;10.10;7.47;;;21.30;99.90;;;;;;5112005;28;20217;-71
2022/06/09 09:55:33;;;;;;;10.20;7.28;;;21.40;99.90;;;;;;5111006;28;20201;-71
2022/06/09 09:58:29;;;;;;;12.75;7.57;;;21.30;99.90;;;;;;5117428;27;20252;-71
2022/06/09 10:00:59;;;;;;;8.13;6.15;;;21.50;99.90;;;;;;5097068;27;20258;-71
2022/06/09 10:09:17;;;;;;;8.95;5.28;;;22.70;99.90;;;;;;5110692;28;20224;-71
2022/06/09 10:11:58;;;;;;;9.65;5.88;;;22.50;99.90;;;;;;5111046;28;20572;-71
2022/06/09 10:14:37;;;;;;;7.07;6.00;;;22.40;99.90;;;;;;5112386;28;20212;-70
2022/06/09 10:17:08;;;;;;;9.18;5.60;;;21.90;99.90;;;;;;5110366;28;20196;-71
2022/06/09 10:19:35;;;;;;;7.20;6.00;;;21.90;99.90;;;;;;5110039;28;20211;-70
2022/06/09 10:22:17;;;;;;;7.72;5.72;;;22.00;99.90;;;;;;5102238;28;20209;-70
2022/06/09 10:24:48;;;;;;;9.23;5.88;;;21.50;99.90;;;;;;5096277;28;20198;-70
2022/06/09 10:27:20;;;;;;;8.80;5.63;;;21.90;99.90;;;;;;5096293;28;20588;-71
2022/06/09 10:29:52;;;;;;;9.50;5.35;;;22.60;98.00;;;;;;5095933;28;20659;-71
2022/06/09 10:32:24;;;;;;;7.82;5.50;;;22.70;96.60;;;;;;5104018;28;20208;-71
2022/06/09 10:35:00;;;;;;;8.27;5.47;;;22.20;98.10;;;;;;5113116;28;20292;-71
2022/06/09 10:37:38;;;;;;;8.85;5.45;;;22.30;98.20;;;;;;5109021;28;20680;-71
2022/06/09 10:40:12;;;;;;;8.75;5.35;;;22.50;99.90;;;;;;5101602;28;20213;-71
2022/06/09 10:42:44;;;;;;;9.57;5.00;;;22.80;95.80;;;;;;5090477;28;20205;-71
2022/06/09 10:45:20;;;;;;;7.80;5.13;;;22.70;92.20;;;;;;5091188;28;20505;-71
2022/06/09 10:56:31;;;;;;;8.27;4.40;;;23.20;83.00;;;;;;5089980;28;20251;-70
2022/06/09 10:59:02;;;;;;;7.30;4.90;;;23.50;79.20;;;;;;5089775;28;20656;-70
2022/06/09 11:01:32;;;;;;;5.85;4.75;;;23.30;80.80;;;;;;5090000;28;20206;-71
2022/06/09 11:04:01;;;;;;;5.20;4.45;;;22.90;84.90;;;;;;5089611;28;20618;-71
2022/06/09 11:06:40;;;;;;;5.10;4.45;;;23.10;86.20;;;;;;5091135;28;20233;-71
2022/06/09 11:09:21;;;;;;;6.03;4.28;;;23.10;90.60;;;;;;5094201;28;20319;-71
2022/06/09 11:11:54;;;;;;;5.57;4.03;;;22.70;89.60;;;;;;5111374;28;20288;-71
2022/06/09 11:14:46;;;;;;;6.72;4.93;;;22.20;88.50;;;;;;5110492;28;20254;-70
2022/06/09 11:17:30;;;;;;;8.38;5.15;;;21.50;95.60;;;;;;5100784;28;20210;-71
2022/06/09 11:20:15;;;;;;;7.38;5.47;;;21.60;99.10;;;;;;5090066;28;20198;-70
2022/06/09 11:22:50;;;;;;;6.72;4.95;;;21.30;99.90;;;;;;5090438;28;20711;-70
2022/06/09 11:25:38;;;;;;;7.07;5.40;;;21.60;97.70;;;;;;5089906;28;20565;-71
2022/06/09 11:28:27;;;;;;;9.48;5.25;;;22.50;95.20;;;;;;5091130;28;20222;-71
2022/06/09 11:31:17;;;;;;;9.27;4.40;;;22.80;92.20;;;;;;5088867;28;20214;-71
2022/06/09 11:33:58;;;;;;;5.53;2.85;;;22.60;91.80;;;;;;5091260;28;20651;-71
2022/06/09 11:36:29;;;;;;;5.55;2.72;;;21.40;97.40;;;;;;5089337;28;20262;-70
2022/06/09 11:39:13;;;;;;;3.50;2.60;;;21.50;99.90;;;;;;5088946;28;20198;-71
2022/06/09 11:41:49;;;;;;;3.95;2.85;;;21.80;98.30;;;;;;5089699;28;20553;-70
2022/06/09 11:44:24;;;;;;;3.80;2.30;;;22.10;94.40;;;;;;5089969;28;20202;-71
2022/06/09 11:46:53;;;;;;;5.60;2.67;;;22.50;94.30;;;;;;5092214;28;20198;-71
2022/06/09 11:49:29;;;;;;;3.50;2.92;;;22.40;91.70;;;;;;5092405;28;20229;-71
2022/06/09 11:51:57;;;;;;;4.13;3.60;;;22.70;87.80;;;;;;5096300;28;20281;-71
2022/06/09 11:54:44;;;;;;;3.47;3.20;;;22.40;91.20;;;;;;5102901;28;21056;-71
2022/06/09 11:57:41;;;;;;;4.97;2.97;;;21.80;90.10;;;;;;5105013;28;20201;-71
2022/06/09 12:00:39;;;;;;;5.35;3.35;;;21.90;92.10;;;;;;5102585;28;20201;-71
2022/06/09 12:03:40;;;;;;;5.43;2.97;;;22.20;90.80;;;;;;5099713;28;20201;-71
2022/06/09 12:06:18;;;;;;;3.50;3.20;;;22.80;87.70;;;;;;5106719;28;20216;-73
2022/06/09 12:09:00;;;;;;;5.65;3.05;;;22.80;90.60;;;;;;5104165;28;20224;-74
2022/06/09 12:11:53;;;;;;;3.30;3.00;;;23.20;88.50;;;;;;5105727;28;20317;-74
2022/06/09 12:14:26;;;;;;;4.13;3.78;;;23.50;88.90;;;;;;5099570;28;20258;-74
2022/06/09 12:17:19;;;;;;;4.60;3.65;;;23.80;83.60;;;;;;5102289;28;20431;-74
2022/06/09 12:19:55;;;;;;;4.07;3.30;;;23.50;76.50;;;;;;5108199;28;20243;-74
2022/06/09 12:22:46;;;;;;;4.25;3.20;;;23.80;83.80;;;;;;5099549;28;20201;-74
2022/06/09 12:25:31;;;;;;;4.40;3.05;;;23.70;76.70;;;;;;5103572;28;20271;-74
2022/06/09 12:27:58;;;;;;;5.13;3.70;;;23.90;82.80;;;;;;5108636;28;20224;-74
2022/06/09 12:30:34;;;;;;;6.07;3.45;;;23.90;79.70;;;;;;5105121;28;20204;-74
2022/06/09 12:33:26;;;;;;;6.25;3.28;;;23.40;88.00;;;;;;5101216;28;20223;-72
2022/06/09 12:35:55;;;;;;;3.10;2.80;;;23.70;82.50;;;;;;5096982;27;20748;-73
2022/06/09 12:38:28;;;;;;;4.25;2.67;;;23.70;78.20;;;;;;5103507;28;20247;-73
2022/06/09 12:40:58;;;;;;;5.00;3.15;;;23.80;80.60;;;;;;5101717;28;20204;-73
2022/06/09 12:43:33;;;;;;;5.00;3.80;;;23.90;75.80;;;;;;5112808;28;20606;-73
2022/06/09 12:46:06;;;;;;;4.72;3.35;;;24.10;75.00;;;;;;5115714;27;20204;-73
2022/06/09 12:48:35;;;;;;;6.35;3.78;;;24.10;79.60;;;;;;5110593;27;20220;-73
2022/06/09 12:51:08;;;;;;;5.00;2.92;;;24.10;81.00;;;;;;5111886;27;20216;-73
2022/06/09 12:53:39;;;;;;;4.53;3.90;;;24.40;79.40;;;;;;5117876;27;20196;-73
2022/06/09 12:56:21;;;;;;;4.32;3.72;;;23.60;79.20;;;;;;5132822;27;20287;-73
2022/06/09 12:58:50;;;;;;;5.60;3.15;;;23.70;78.00;;;;;;5099496;27;20939;-73
2022/06/09 13:01:23;;;;;;;4.85;3.50;;;23.60;78.60;;;;;;5114103;28;20252;-74
2022/06/09 13:03:52;;;;;;;6.60;3.17;;;23.80;78.60;;;;;;5116236;27;20643;-74
2022/06/09 13:06:26;;;;;;;7.68;3.33;;;23.60;72.70;;;;;;5096630;28;20747;-75
2022/06/09 13:08:56;;;;;;;3.67;3.10;;;23.80;76.00;;;;;;5107887;28;20235;-74
2022/06/09 13:14:24;;;;;;;3.92;2.80;;;23.80;77.50;;;;;;5109582;28;20661;-73
2022/06/09 13:16:56;;;;;;;4.93;3.28;;;24.30;75.20;;;;;;5107588;28;20253;-71
2022/06/09 13:19:27;;;;;;;6.43;3.20;;;24.50;70.00;;;;;;5098145;28;20305;-72